sensor_id;sensor_type;location;lat;lon;timestamp;P1;durP1;ratioP1;P2;durP2;ratioP2
44246;SDS011;29922;0.000;0.000;2022-07-23T00:00:32;4.60;;;3.35;;
44246;SDS011;29922;0.000;0.000;2022-07-23T00:05:53;4.28;;;3.00;;
44246;SDS011;29922;0.000;0.000;2022-07-23T00:11:15;4.85;;;3.10;;
44246;SDS011;29922;0.000;0.000;2022-07-23T00:16:35;4.13;;;3.13;;
44246;SDS011;29922;0.000;0.000;2022-07-23T00:21:56;4.75;;;3.22;;
44246;SDS011;29922;0.000;0.000;2022-07-23T00:27:17;4.57;;;3.42;;
44246;SDS011;29922;0.000;0.000;2022-07-23T00:32:44;4.65;;;3.33;;
44246;SDS011;29922;0.000;0.000;2022-07-23T00:38:07;4.72;;;3.30;;
44246;SDS011;29922;0.000;0.000;2022-07-23T00:43:30;4.95;;;3.70;;
44246;SDS011;29922;0.000;0.000;2022-07-23T00:48:50;5.97;;;3.92;;
44246;SDS011;29922;0.000;0.000;2022-07-23T00:54:11;5.22;;;3.50;;
44246;SDS011;29922;0.000;0.000;2022-07-23T00:59:33;5.40;;;3.70;;
44246;SDS011;29922;0.000;0.000;2022-07-23T01:04:53;4.80;;;3.50;;
44246;SDS011;29922;0.000;0.000;2022-07-23T01:10:14;6.22;;;3.65;;
44246;SDS011;29922;0.000;0.000;2022-07-23T01:15:55;5.22;;;3.80;;
44246;SDS011;29922;0.000;0.000;2022-07-23T01:21:15;4.55;;;3.70;;
44246;SDS011;29922;0.000;0.000;2022-07-23T01:26:41;4.20;;;3.00;;
44246;SDS011;29922;0.000;0.000;2022-07-23T01:32:05;5.03;;;3.20;;
44246;SDS011;29922;0.000;0.000;2022-07-23T01:37:26;5.55;;;3.53;;
44246;SDS011;29922;0.000;0.000;2022-07-23T01:42:48;4.88;;;3.47;;
44246;SDS011;29922;0.000;0.000;2022-07-23T01:48:08;5.18;;;3.20;;
44246;SDS011;29922;0.000;0.000;2022-07-23T01:53:29;6.05;;;3.42;;
44246;SDS011;29922;0.000;0.000;2022-07-23T01:58:51;3.72;;;2.90;;
44246;SDS011;29922;0.000;0.000;2022-07-23T02:04:12;4.55;;;3.38;;
44246;SDS011;29922;0.000;0.000;2022-07-23T02:09:33;4.65;;;2.85;;
44246;SDS011;29922;0.000;0.000;2022-07-23T02:14:54;4.43;;;3.20;;
44246;SDS011;29922;0.000;0.000;2022-07-23T02:20:15;4.25;;;3.17;;
44246;SDS011;29922;0.000;0.000;2022-07-23T02:25:36;4.78;;;3.20;;
44246;SDS011;29922;0.000;0.000;2022-07-23T02:30:58;6.80;;;3.45;;
44246;SDS011;29922;0.000;0.000;2022-07-23T02:36:18;4.97;;;3.42;;
44246;SDS011;29922;0.000;0.000;2022-07-23T02:41:39;3.90;;;3.30;;
44246;SDS011;29922;0.000;0.000;2022-07-23T02:47:00;5.53;;;3.58;;
44246;SDS011;29922;0.000;0.000;2022-07-23T02:52:21;5.90;;;3.53;;
44246;SDS011;29922;0.000;0.000;2022-07-23T02:57:41;5.13;;;3.55;;
44246;SDS011;29922;0.000;0.000;2022-07-23T03:03:03;6.25;;;3.40;;
44246;SDS011;29922;0.000;0.000;2022-07-23T03:08:25;4.97;;;3.35;;
44246;SDS011;29922;0.000;0.000;2022-07-23T03:13:45;5.28;;;3.40;;
44246;SDS011;29922;0.000;0.000;2022-07-23T03:19:07;4.32;;;3.03;;
44246;SDS011;29922;0.000;0.000;2022-07-23T03:24:27;4.97;;;3.30;;
44246;SDS011;29922;0.000;0.000;2022-07-23T03:30:02;4.35;;;3.20;;
44246;SDS011;29922;0.000;0.000;2022-07-23T03:35:26;6.15;;;3.65;;
44246;SDS011;29922;0.000;0.000;2022-07-23T03:40:46;5.15;;;3.17;;
44246;SDS011;29922;0.000;0.000;2022-07-23T03:46:07;6.65;;;3.65;;
44246;SDS011;29922;0.000;0.000;2022-07-23T03:51:29;4.70;;;3.38;;
44246;SDS011;29922;0.000;0.000;2022-07-23T03:56:50;5.13;;;3.55;;
44246;SDS011;29922;0.000;0.000;2022-07-23T04:02:11;5.20;;;3.40;;
44246;SDS011;29922;0.000;0.000;2022-07-23T04:07:32;5.30;;;3.40;;
44246;SDS011;29922;0.000;0.000;2022-07-23T04:12:53;4.78;;;3.20;;
44246;SDS011;29922;0.000;0.000;2022-07-23T04:18:13;5.55;;;3.13;;
44246;SDS011;29922;0.000;0.000;2022-07-23T04:23:37;5.13;;;3.30;;
44246;SDS011;29922;0.000;0.000;2022-07-23T04:28:58;4.05;;;3.00;;
44246;SDS011;29922;0.000;0.000;2022-07-23T04:34:18;4.53;;;3.35;;
44246;SDS011;29922;0.000;0.000;2022-07-23T04:39:40;5.00;;;3.70;;
44246;SDS011;29922;0.000;0.000;2022-07-23T04:45:01;4.65;;;3.53;;
44246;SDS011;29922;0.000;0.000;2022-07-23T04:50:22;5.30;;;3.63;;
44246;SDS011;29922;0.000;0.000;2022-07-23T04:55:44;5.32;;;3.60;;
44246;SDS011;29922;0.000;0.000;2022-07-23T05:01:04;6.07;;;3.70;;
44246;SDS011;29922;0.000;0.000;2022-07-23T05:06:25;5.53;;;3.83;;
44246;SDS011;29922;0.000;0.000;2022-07-23T05:11:47;5.65;;;4.00;;
44246;SDS011;29922;0.000;0.000;2022-07-23T05:17:07;4.72;;;3.40;;
44246;SDS011;29922;0.000;0.000;2022-07-23T05:22:28;4.70;;;3.42;;
44246;SDS011;29922;0.000;0.000;2022-07-23T05:27:50;5.13;;;3.85;;
44246;SDS011;29922;0.000;0.000;2022-07-23T05:33:10;4.20;;;3.10;;
44246;SDS011;29922;0.000;0.000;2022-07-23T05:38:31;5.95;;;3.80;;
44246;SDS011;29922;0.000;0.000;2022-07-23T05:43:54;4.97;;;3.30;;
44246;SDS011;29922;0.000;0.000;2022-07-23T05:49:15;6.40;;;3.80;;
44246;SDS011;29922;0.000;0.000;2022-07-23T05:54:35;4.85;;;3.50;;
44246;SDS011;29922;0.000;0.000;2022-07-23T05:59:57;4.45;;;3.25;;
44246;SDS011;29922;0.000;0.000;2022-07-23T06:05:18;5.10;;;3.83;;
44246;SDS011;29922;0.000;0.000;2022-07-23T06:10:39;4.93;;;3.38;;
44246;SDS011;29922;0.000;0.000;2022-07-23T06:16:01;4.88;;;3.47;;
44246;SDS011;29922;0.000;0.000;2022-07-23T06:21:22;4.85;;;3.50;;
44246;SDS011;29922;0.000;0.000;2022-07-23T06:26:42;4.15;;;3.47;;
44246;SDS011;29922;0.000;0.000;2022-07-23T06:32:04;4.10;;;2.83;;
44246;SDS011;29922;0.000;0.000;2022-07-23T06:37:25;4.88;;;3.85;;
44246;SDS011;29922;0.000;0.000;2022-07-23T06:42:46;4.55;;;3.20;;
44246;SDS011;29922;0.000;0.000;2022-07-23T06:48:08;4.82;;;3.53;;
44246;SDS011;29922;0.000;0.000;2022-07-23T06:53:29;5.20;;;3.60;;
44246;SDS011;29922;0.000;0.000;2022-07-23T06:58:49;4.57;;;3.42;;
44246;SDS011;29922;0.000;0.000;2022-07-23T07:04:11;4.30;;;3.00;;
44246;SDS011;29922;0.000;0.000;2022-07-23T07:09:32;4.15;;;3.22;;
44246;SDS011;29922;0.000;0.000;2022-07-23T07:14:52;5.13;;;3.70;;
44246;SDS011;29922;0.000;0.000;2022-07-23T07:20:14;3.95;;;3.20;;
44246;SDS011;29922;0.000;0.000;2022-07-23T07:25:35;5.03;;;3.60;;
44246;SDS011;29922;0.000;0.000;2022-07-23T07:30:56;6.70;;;3.75;;
44246;SDS011;29922;0.000;0.000;2022-07-23T07:36:18;5.88;;;3.58;;
44246;SDS011;29922;0.000;0.000;2022-07-23T07:41:38;6.28;;;3.17;;
44246;SDS011;29922;0.000;0.000;2022-07-23T07:46:59;6.07;;;3.60;;
44246;SDS011;29922;0.000;0.000;2022-07-23T07:52:21;6.60;;;3.72;;
44246;SDS011;29922;0.000;0.000;2022-07-23T07:57:41;6.28;;;3.53;;
44246;SDS011;29922;0.000;0.000;2022-07-23T08:03:02;6.90;;;3.35;;
44246;SDS011;29922;0.000;0.000;2022-07-23T08:08:24;6.60;;;3.70;;
44246;SDS011;29922;0.000;0.000;2022-07-23T08:13:44;4.68;;;3.67;;
44246;SDS011;29922;0.000;0.000;2022-07-23T08:19:05;5.82;;;3.88;;
44246;SDS011;29922;0.000;0.000;2022-07-23T08:24:27;4.53;;;3.40;;
44246;SDS011;29922;0.000;0.000;2022-07-23T08:29:47;4.50;;;3.33;;
44246;SDS011;29922;0.000;0.000;2022-07-23T08:35:08;4.93;;;3.35;;
44246;SDS011;29922;0.000;0.000;2022-07-23T08:40:30;4.72;;;3.53;;
44246;SDS011;29922;0.000;0.000;2022-07-23T08:45:54;6.45;;;3.60;;
44246;SDS011;29922;0.000;0.000;2022-07-23T08:51:17;4.95;;;3.58;;
44246;SDS011;29922;0.000;0.000;2022-07-23T08:56:39;4.28;;;3.50;;
44246;SDS011;29922;0.000;0.000;2022-07-23T09:02:00;5.22;;;3.83;;
44246;SDS011;29922;0.000;0.000;2022-07-23T09:07:21;5.18;;;3.55;;
44246;SDS011;29922;0.000;0.000;2022-07-23T09:12:42;4.72;;;3.30;;
44246;SDS011;29922;0.000;0.000;2022-07-23T09:18:03;4.75;;;3.40;;
44246;SDS011;29922;0.000;0.000;2022-07-23T09:23:31;4.88;;;3.03;;
44246;SDS011;29922;0.000;0.000;2022-07-23T09:29:01;4.38;;;2.90;;
44246;SDS011;29922;0.000;0.000;2022-07-23T09:34:28;4.75;;;3.15;;
44246;SDS011;29922;0.000;0.000;2022-07-23T09:39:51;4.95;;;3.30;;
44246;SDS011;29922;0.000;0.000;2022-07-23T09:45:25;4.97;;;3.15;;
44246;SDS011;29922;0.000;0.000;2022-07-23T09:50:45;4.85;;;3.42;;
44246;SDS011;29922;0.000;0.000;2022-07-23T09:56:07;3.95;;;3.13;;
44246;SDS011;29922;0.000;0.000;2022-07-23T10:01:30;4.63;;;3.28;;
44246;SDS011;29922;0.000;0.000;2022-07-23T10:06:52;3.97;;;3.20;;
44246;SDS011;29922;0.000;0.000;2022-07-23T10:12:14;4.97;;;3.72;;
44246;SDS011;29922;0.000;0.000;2022-07-23T10:17:50;4.68;;;3.10;;
44246;SDS011;29922;0.000;0.000;2022-07-23T10:23:24;4.55;;;3.40;;
44246;SDS011;29922;0.000;0.000;2022-07-23T10:28:56;5.00;;;3.03;;
44246;SDS011;29922;0.000;0.000;2022-07-23T10:34:36;3.92;;;2.88;;
44246;SDS011;29922;0.000;0.000;2022-07-23T10:40:08;4.38;;;3.38;;
44246;SDS011;29922;0.000;0.000;2022-07-23T10:45:33;4.50;;;2.97;;
44246;SDS011;29922;0.000;0.000;2022-07-23T10:51:06;4.63;;;3.22;;
44246;SDS011;29922;0.000;0.000;2022-07-23T10:56:49;4.22;;;3.55;;
44246;SDS011;29922;0.000;0.000;2022-07-23T11:02:28;3.75;;;3.15;;
44246;SDS011;29922;0.000;0.000;2022-07-23T11:13:40;3.85;;;3.10;;
44246;SDS011;29922;0.000;0.000;2022-07-23T11:19:06;4.90;;;3.47;;
44246;SDS011;29922;0.000;0.000;2022-07-23T11:24:29;4.70;;;3.80;;
44246;SDS011;29922;0.000;0.000;2022-07-23T11:29:49;5.22;;;3.60;;
44246;SDS011;29922;0.000;0.000;2022-07-23T11:35:21;5.13;;;3.75;;
44246;SDS011;29922;0.000;0.000;2022-07-23T11:40:48;4.40;;;3.53;;
44246;SDS011;29922;0.000;0.000;2022-07-23T11:46:10;4.38;;;3.35;;
44246;SDS011;29922;0.000;0.000;2022-07-23T11:51:31;3.70;;;3.22;;
44246;SDS011;29922;0.000;0.000;2022-07-23T11:56:56;4.43;;;3.85;;
44246;SDS011;29922;0.000;0.000;2022-07-23T12:02:17;5.00;;;3.60;;
44246;SDS011;29922;0.000;0.000;2022-07-23T12:07:41;4.88;;;3.60;;
44246;SDS011;29922;0.000;0.000;2022-07-23T12:13:06;6.18;;;3.60;;
44246;SDS011;29922;0.000;0.000;2022-07-23T12:18:28;4.93;;;3.60;;
44246;SDS011;29922;0.000;0.000;2022-07-23T12:23:49;5.03;;;3.88;;
44246;SDS011;29922;0.000;0.000;2022-07-23T12:29:11;4.25;;;3.40;;
44246;SDS011;29922;0.000;0.000;2022-07-23T12:34:32;6.80;;;3.65;;
44246;SDS011;29922;0.000;0.000;2022-07-23T12:39:52;4.47;;;3.35;;
44246;SDS011;29922;0.000;0.000;2022-07-23T12:45:14;4.13;;;3.38;;
44246;SDS011;29922;0.000;0.000;2022-07-23T12:50:40;4.95;;;3.90;;
44246;SDS011;29922;0.000;0.000;2022-07-23T12:56:10;4.65;;;3.55;;
44246;SDS011;29922;0.000;0.000;2022-07-23T13:01:35;5.40;;;3.58;;
44246;SDS011;29922;0.000;0.000;2022-07-23T13:06:58;4.80;;;3.30;;
44246;SDS011;29922;0.000;0.000;2022-07-23T13:12:20;5.82;;;3.78;;
44246;SDS011;29922;0.000;0.000;2022-07-23T13:17:42;4.15;;;3.42;;
44246;SDS011;29922;0.000;0.000;2022-07-23T13:23:04;4.78;;;3.72;;
44246;SDS011;29922;0.000;0.000;2022-07-23T13:28:25;5.63;;;3.67;;
44246;SDS011;29922;0.000;0.000;2022-07-23T13:33:47;4.75;;;3.38;;
44246;SDS011;29922;0.000;0.000;2022-07-23T13:39:07;5.07;;;3.53;;
44246;SDS011;29922;0.000;0.000;2022-07-23T13:44:28;5.40;;;3.72;;
44246;SDS011;29922;0.000;0.000;2022-07-23T13:49:49;4.80;;;3.88;;
44246;SDS011;29922;0.000;0.000;2022-07-23T13:55:10;5.82;;;3.67;;
44246;SDS011;29922;0.000;0.000;2022-07-23T14:00:32;5.13;;;3.47;;
44246;SDS011;29922;0.000;0.000;2022-07-23T14:05:56;4.97;;;3.42;;
44246;SDS011;29922;0.000;0.000;2022-07-23T14:11:17;4.85;;;3.70;;
44246;SDS011;29922;0.000;0.000;2022-07-23T14:16:38;4.93;;;3.47;;
44246;SDS011;29922;0.000;0.000;2022-07-23T14:22:00;4.25;;;3.47;;
44246;SDS011;29922;0.000;0.000;2022-07-23T14:27:20;4.15;;;3.30;;
44246;SDS011;29922;0.000;0.000;2022-07-23T14:32:41;6.05;;;3.80;;
44246;SDS011;29922;0.000;0.000;2022-07-23T14:38:02;5.10;;;3.60;;
44246;SDS011;29922;0.000;0.000;2022-07-23T14:43:23;5.20;;;3.38;;
44246;SDS011;29922;0.000;0.000;2022-07-23T14:48:43;4.85;;;3.45;;
44246;SDS011;29922;0.000;0.000;2022-07-23T14:54:05;4.95;;;3.53;;
44246;SDS011;29922;0.000;0.000;2022-07-23T14:59:26;3.75;;;3.20;;
44246;SDS011;29922;0.000;0.000;2022-07-23T15:04:47;4.45;;;3.10;;
44246;SDS011;29922;0.000;0.000;2022-07-23T15:10:09;4.28;;;3.40;;
44246;SDS011;29922;0.000;0.000;2022-07-23T15:15:30;5.07;;;3.42;;
44246;SDS011;29922;0.000;0.000;2022-07-23T15:20:50;4.45;;;3.25;;
44246;SDS011;29922;0.000;0.000;2022-07-23T15:26:12;4.05;;;3.40;;
44246;SDS011;29922;0.000;0.000;2022-07-23T15:31:33;3.92;;;3.28;;
44246;SDS011;29922;0.000;0.000;2022-07-23T15:36:54;5.07;;;3.42;;
44246;SDS011;29922;0.000;0.000;2022-07-23T15:42:16;5.70;;;3.42;;
44246;SDS011;29922;0.000;0.000;2022-07-23T15:47:37;5.15;;;3.20;;
44246;SDS011;29922;0.000;0.000;2022-07-23T15:52:58;6.32;;;3.90;;
44246;SDS011;29922;0.000;0.000;2022-07-23T15:58:20;4.82;;;3.25;;
44246;SDS011;29922;0.000;0.000;2022-07-23T16:03:41;4.22;;;3.17;;
44246;SDS011;29922;0.000;0.000;2022-07-23T16:09:02;4.60;;;3.13;;
44246;SDS011;29922;0.000;0.000;2022-07-23T16:14:24;4.93;;;3.20;;
44246;SDS011;29922;0.000;0.000;2022-07-23T16:19:45;4.47;;;3.30;;
44246;SDS011;29922;0.000;0.000;2022-07-23T16:25:06;4.90;;;3.35;;
44246;SDS011;29922;0.000;0.000;2022-07-23T16:30:29;5.97;;;3.10;;
44246;SDS011;29922;0.000;0.000;2022-07-23T16:35:51;3.90;;;3.00;;
44246;SDS011;29922;0.000;0.000;2022-07-23T16:41:11;4.82;;;3.58;;
44246;SDS011;29922;0.000;0.000;2022-07-23T16:46:33;4.38;;;3.17;;
44246;SDS011;29922;0.000;0.000;2022-07-23T16:51:54;4.03;;;3.13;;
44246;SDS011;29922;0.000;0.000;2022-07-23T16:57:15;3.80;;;3.20;;
44246;SDS011;29922;0.000;0.000;2022-07-23T17:02:37;4.55;;;3.03;;
44246;SDS011;29922;0.000;0.000;2022-07-23T17:07:58;4.50;;;3.10;;
44246;SDS011;29922;0.000;0.000;2022-07-23T17:13:20;4.45;;;3.00;;
44246;SDS011;29922;0.000;0.000;2022-07-23T17:18:42;4.03;;;3.20;;
44246;SDS011;29922;0.000;0.000;2022-07-23T17:24:03;3.85;;;3.20;;
44246;SDS011;29922;0.000;0.000;2022-07-23T17:29:24;4.40;;;3.22;;
44246;SDS011;29922;0.000;0.000;2022-07-23T17:34:46;4.35;;;2.95;;
44246;SDS011;29922;0.000;0.000;2022-07-23T17:40:07;4.10;;;3.25;;
44246;SDS011;29922;0.000;0.000;2022-07-23T17:45:28;4.75;;;3.42;;
44246;SDS011;29922;0.000;0.000;2022-07-23T17:50:50;5.07;;;3.40;;
44246;SDS011;29922;0.000;0.000;2022-07-23T17:56:11;4.25;;;3.08;;
44246;SDS011;29922;0.000;0.000;2022-07-23T18:01:32;3.83;;;3.10;;
44246;SDS011;29922;0.000;0.000;2022-07-23T18:06:55;3.45;;;3.00;;
44246;SDS011;29922;0.000;0.000;2022-07-23T18:12:17;3.13;;;2.83;;
44246;SDS011;29922;0.000;0.000;2022-07-23T18:17:38;3.55;;;2.88;;
44246;SDS011;29922;0.000;0.000;2022-07-23T18:23:02;3.78;;;2.90;;
44246;SDS011;29922;0.000;0.000;2022-07-23T18:28:23;3.42;;;3.00;;
44246;SDS011;29922;0.000;0.000;2022-07-23T18:33:43;3.92;;;3.03;;
44246;SDS011;29922;0.000;0.000;2022-07-23T18:39:05;4.32;;;3.22;;
44246;SDS011;29922;0.000;0.000;2022-07-23T18:44:26;4.70;;;3.50;;
44246;SDS011;29922;0.000;0.000;2022-07-23T18:49:46;5.07;;;3.60;;
44246;SDS011;29922;0.000;0.000;2022-07-23T18:55:08;4.00;;;3.20;;
44246;SDS011;29922;0.000;0.000;2022-07-23T19:00:30;4.90;;;3.35;;
44246;SDS011;29922;0.000;0.000;2022-07-23T19:05:52;6.30;;;4.32;;
44246;SDS011;29922;0.000;0.000;2022-07-23T19:11:14;5.45;;;4.00;;
44246;SDS011;29922;0.000;0.000;2022-07-23T19:16:35;6.47;;;4.13;;
44246;SDS011;29922;0.000;0.000;2022-07-23T19:21:56;6.28;;;3.90;;
44246;SDS011;29922;0.000;0.000;2022-07-23T19:27:17;5.22;;;4.05;;
44246;SDS011;29922;0.000;0.000;2022-07-23T19:32:38;4.97;;;3.80;;
44246;SDS011;29922;0.000;0.000;2022-07-23T19:37:59;5.82;;;4.13;;
44246;SDS011;29922;0.000;0.000;2022-07-23T19:43:22;6.55;;;4.22;;
44246;SDS011;29922;0.000;0.000;2022-07-23T19:48:43;5.35;;;4.18;;
44246;SDS011;29922;0.000;0.000;2022-07-23T19:54:03;6.63;;;4.78;;
44246;SDS011;29922;0.000;0.000;2022-07-23T19:59:26;7.07;;;5.10;;
44246;SDS011;29922;0.000;0.000;2022-07-23T20:04:46;6.88;;;4.47;;
44246;SDS011;29922;0.000;0.000;2022-07-23T20:10:08;5.75;;;4.20;;
44246;SDS011;29922;0.000;0.000;2022-07-23T20:15:31;5.72;;;4.20;;
44246;SDS011;29922;0.000;0.000;2022-07-23T20:20:52;5.05;;;4.00;;
44246;SDS011;29922;0.000;0.000;2022-07-23T20:26:13;6.43;;;4.07;;
44246;SDS011;29922;0.000;0.000;2022-07-23T20:31:34;5.45;;;4.03;;
44246;SDS011;29922;0.000;0.000;2022-07-23T20:36:55;4.90;;;3.95;;
44246;SDS011;29922;0.000;0.000;2022-07-23T20:42:16;5.43;;;3.80;;
44246;SDS011;29922;0.000;0.000;2022-07-23T20:47:40;5.88;;;4.22;;
44246;SDS011;29922;0.000;0.000;2022-07-23T20:53:00;6.10;;;3.83;;
44246;SDS011;29922;0.000;0.000;2022-07-23T20:58:21;6.53;;;4.22;;
44246;SDS011;29922;0.000;0.000;2022-07-23T21:03:43;6.60;;;4.55;;
44246;SDS011;29922;0.000;0.000;2022-07-23T21:09:04;5.30;;;3.65;;
44246;SDS011;29922;0.000;0.000;2022-07-23T21:14:24;5.00;;;3.70;;
44246;SDS011;29922;0.000;0.000;2022-07-23T21:19:46;4.93;;;3.60;;
44246;SDS011;29922;0.000;0.000;2022-07-23T21:25:07;4.80;;;3.90;;
44246;SDS011;29922;0.000;0.000;2022-07-23T21:30:28;5.70;;;3.80;;
44246;SDS011;29922;0.000;0.000;2022-07-23T21:35:50;5.20;;;4.03;;
44246;SDS011;29922;0.000;0.000;2022-07-23T21:41:11;4.80;;;3.65;;
44246;SDS011;29922;0.000;0.000;2022-07-23T21:46:31;4.35;;;3.58;;
44246;SDS011;29922;0.000;0.000;2022-07-23T21:51:54;5.32;;;3.70;;
44246;SDS011;29922;0.000;0.000;2022-07-23T21:57:14;5.72;;;4.00;;
44246;SDS011;29922;0.000;0.000;2022-07-23T22:02:35;4.82;;;3.53;;
44246;SDS011;29922;0.000;0.000;2022-07-23T22:07:57;6.95;;;4.13;;
44246;SDS011;29922;0.000;0.000;2022-07-23T22:13:17;4.90;;;3.85;;
44246;SDS011;29922;0.000;0.000;2022-07-23T22:18:38;5.40;;;4.28;;
44246;SDS011;29922;0.000;0.000;2022-07-23T22:24:00;5.13;;;3.83;;
44246;SDS011;29922;0.000;0.000;2022-07-23T22:29:21;4.25;;;3.55;;
44246;SDS011;29922;0.000;0.000;2022-07-23T22:34:42;5.22;;;3.80;;
44246;SDS011;29922;0.000;0.000;2022-07-23T22:40:04;5.05;;;3.70;;
44246;SDS011;29922;0.000;0.000;2022-07-23T22:45:27;5.88;;;4.03;;
44246;SDS011;29922;0.000;0.000;2022-07-23T22:50:47;5.28;;;3.70;;
44246;SDS011;29922;0.000;0.000;2022-07-23T22:56:10;4.20;;;3.38;;
44246;SDS011;29922;0.000;0.000;2022-07-23T23:01:30;4.57;;;3.42;;
44246;SDS011;29922;0.000;0.000;2022-07-23T23:06:51;6.07;;;3.70;;
44246;SDS011;29922;0.000;0.000;2022-07-23T23:12:13;4.28;;;3.72;;
44246;SDS011;29922;0.000;0.000;2022-07-23T23:17:33;5.32;;;4.00;;
44246;SDS011;29922;0.000;0.000;2022-07-23T23:22:54;5.57;;;4.18;;
44246;SDS011;29922;0.000;0.000;2022-07-23T23:28:16;5.40;;;4.13;;
44246;SDS011;29922;0.000;0.000;2022-07-23T23:33:36;5.20;;;4.00;;
44246;SDS011;29922;0.000;0.000;2022-07-23T23:38:57;4.75;;;3.85;;
44246;SDS011;29922;0.000;0.000;2022-07-23T23:44:19;4.93;;;3.88;;
44246;SDS011;29922;0.000;0.000;2022-07-23T23:49:40;5.28;;;4.00;;
44246;SDS011;29922;0.000;0.000;2022-07-23T23:55:00;5.25;;;3.53;;
